sensor_id;sensor_type;location;lat;lon;timestamp;P1;durP1;ratioP1;P2;durP2;ratioP2
18793;SDS011;29610;49.022;12.114;2024-02-14T00:00:31;10.83;;;6.13;;
18793;SDS011;29610;49.022;12.114;2024-02-14T00:02:59;10.87;;;7.03;;
18793;SDS011;29610;49.022;12.114;2024-02-14T00:05:28;11.00;;;6.60;;
18793;SDS011;29610;49.022;12.114;2024-02-14T00:07:58;10.90;;;6.60;;
18793;SDS011;29610;49.022;12.114;2024-02-14T00:10:26;9.47;;;5.87;;
18793;SDS011;29610;49.022;12.114;2024-02-14T00:12:54;17.30;;;6.50;;
18793;SDS011;29610;49.022;12.114;2024-02-14T00:15:23;12.50;;;6.83;;
18793;SDS011;29610;49.022;12.114;2024-02-14T00:17:51;13.27;;;6.70;;
18793;SDS011;29610;49.022;12.114;2024-02-14T00:20:20;15.50;;;7.10;;
18793;SDS011;29610;49.022;12.114;2024-02-14T00:22:53;12.80;;;6.37;;
18793;SDS011;29610;49.022;12.114;2024-02-14T00:25:23;14.67;;;6.60;;
18793;SDS011;29610;49.022;12.114;2024-02-14T00:27:53;9.80;;;5.97;;
18793;SDS011;29610;49.022;12.114;2024-02-14T00:30:22;13.23;;;6.70;;
18793;SDS011;29610;49.022;12.114;2024-02-14T00:33:09;10.83;;;6.10;;
18793;SDS011;29610;49.022;12.114;2024-02-14T00:35:37;9.77;;;6.00;;
18793;SDS011;29610;49.022;12.114;2024-02-14T00:38:05;13.67;;;5.97;;
18793;SDS011;29610;49.022;12.114;2024-02-14T00:40:35;10.20;;;5.53;;
18793;SDS011;29610;49.022;12.114;2024-02-14T00:43:04;12.93;;;6.57;;
18793;SDS011;29610;49.022;12.114;2024-02-14T00:45:32;15.80;;;6.90;;
18793;SDS011;29610;49.022;12.114;2024-02-14T00:48:01;11.40;;;7.20;;
18793;SDS011;29610;49.022;12.114;2024-02-14T00:50:30;12.73;;;7.13;;
18793;SDS011;29610;49.022;12.114;2024-02-14T00:53:00;10.80;;;6.60;;
18793;SDS011;29610;49.022;12.114;2024-02-14T00:55:28;14.85;;;7.85;;
18793;SDS011;29610;49.022;12.114;2024-02-14T00:57:58;11.00;;;5.60;;
18793;SDS011;29610;49.022;12.114;2024-02-14T01:00:26;14.63;;;6.60;;
18793;SDS011;29610;49.022;12.114;2024-02-14T01:02:54;9.63;;;6.50;;
18793;SDS011;29610;49.022;12.114;2024-02-14T01:05:24;10.53;;;6.80;;
18793;SDS011;29610;49.022;12.114;2024-02-14T01:07:53;13.40;;;6.40;;
18793;SDS011;29610;49.022;12.114;2024-02-14T01:10:21;9.87;;;5.50;;
18793;SDS011;29610;49.022;12.114;2024-02-14T01:12:49;13.83;;;5.90;;
18793;SDS011;29610;49.022;12.114;2024-02-14T01:15:19;13.93;;;6.20;;
18793;SDS011;29610;49.022;12.114;2024-02-14T01:17:48;11.07;;;6.27;;
18793;SDS011;29610;49.022;12.114;2024-02-14T01:20:16;13.37;;;6.83;;
18793;SDS011;29610;49.022;12.114;2024-02-14T01:22:45;11.00;;;6.37;;
18793;SDS011;29610;49.022;12.114;2024-02-14T01:25:21;12.77;;;6.90;;
18793;SDS011;29610;49.022;12.114;2024-02-14T01:27:49;11.60;;;6.90;;
18793;SDS011;29610;49.022;12.114;2024-02-14T01:30:20;13.97;;;7.23;;
18793;SDS011;29610;49.022;12.114;2024-02-14T01:32:48;13.87;;;7.50;;
18793;SDS011;29610;49.022;12.114;2024-02-14T01:35:16;16.00;;;7.27;;
18793;SDS011;29610;49.022;12.114;2024-02-14T01:37:45;10.57;;;6.90;;
18793;SDS011;29610;49.022;12.114;2024-02-14T01:40:13;11.23;;;6.63;;
18793;SDS011;29610;49.022;12.114;2024-02-14T01:42:52;13.07;;;7.00;;
18793;SDS011;29610;49.022;12.114;2024-02-14T01:45:23;24.60;;;7.67;;
18793;SDS011;29610;49.022;12.114;2024-02-14T01:47:59;12.30;;;7.23;;
18793;SDS011;29610;49.022;12.114;2024-02-14T01:50:28;16.53;;;8.10;;
18793;SDS011;29610;49.022;12.114;2024-02-14T01:52:58;15.40;;;7.33;;
18793;SDS011;29610;49.022;12.114;2024-02-14T01:55:29;14.50;;;7.57;;
18793;SDS011;29610;49.022;12.114;2024-02-14T01:57:58;13.77;;;7.70;;
18793;SDS011;29610;49.022;12.114;2024-02-14T02:00:28;18.60;;;8.50;;
18793;SDS011;29610;49.022;12.114;2024-02-14T02:03:02;12.30;;;7.27;;
18793;SDS011;29610;49.022;12.114;2024-02-14T02:05:31;13.03;;;7.57;;
18793;SDS011;29610;49.022;12.114;2024-02-14T02:08:01;14.87;;;8.07;;
18793;SDS011;29610;49.022;12.114;2024-02-14T02:10:29;15.00;;;8.70;;
18793;SDS011;29610;49.022;12.114;2024-02-14T02:13:17;14.40;;;7.30;;
18793;SDS011;29610;49.022;12.114;2024-02-14T02:16:08;12.97;;;6.33;;
18793;SDS011;29610;49.022;12.114;2024-02-14T02:18:57;13.70;;;7.40;;
18793;SDS011;29610;49.022;12.114;2024-02-14T02:21:46;10.73;;;7.10;;
18793;SDS011;29610;49.022;12.114;2024-02-14T02:24:15;11.90;;;7.30;;
18793;SDS011;29610;49.022;12.114;2024-02-14T02:26:44;15.93;;;7.90;;
18793;SDS011;29610;49.022;12.114;2024-02-14T02:29:32;19.23;;;8.10;;
18793;SDS011;29610;49.022;12.114;2024-02-14T02:32:01;13.23;;;6.87;;
18793;SDS011;29610;49.022;12.114;2024-02-14T02:34:31;20.53;;;7.43;;
18793;SDS011;29610;49.022;12.114;2024-02-14T02:37:00;10.53;;;6.73;;
18793;SDS011;29610;49.022;12.114;2024-02-14T02:39:48;14.50;;;7.27;;
18793;SDS011;29610;49.022;12.114;2024-02-14T02:42:36;14.00;;;7.50;;
18793;SDS011;29610;49.022;12.114;2024-02-14T02:45:24;11.10;;;6.43;;
18793;SDS011;29610;49.022;12.114;2024-02-14T02:48:12;15.47;;;7.07;;
18793;SDS011;29610;49.022;12.114;2024-02-14T02:50:55;12.13;;;7.20;;
18793;SDS011;29610;49.022;12.114;2024-02-14T02:53:42;12.80;;;7.27;;
18793;SDS011;29610;49.022;12.114;2024-02-14T02:56:31;13.60;;;6.70;;
18793;SDS011;29610;49.022;12.114;2024-02-14T02:59:00;12.10;;;6.90;;
18793;SDS011;29610;49.022;12.114;2024-02-14T03:01:34;15.60;;;7.90;;
18793;SDS011;29610;49.022;12.114;2024-02-14T03:04:23;12.73;;;8.27;;
18793;SDS011;29610;49.022;12.114;2024-02-14T03:07:31;16.10;;;8.27;;
18793;SDS011;29610;49.022;12.114;2024-02-14T03:10:20;18.90;;;9.30;;
18793;SDS011;29610;49.022;12.114;2024-02-14T03:13:09;17.67;;;8.67;;
18793;SDS011;29610;49.022;12.114;2024-02-14T03:15:58;15.93;;;9.10;;
18793;SDS011;29610;49.022;12.114;2024-02-14T03:18:26;15.63;;;9.40;;
18793;SDS011;29610;49.022;12.114;2024-02-14T03:20:55;16.90;;;9.03;;
18793;SDS011;29610;49.022;12.114;2024-02-14T03:23:23;17.33;;;9.53;;
18793;SDS011;29610;49.022;12.114;2024-02-14T03:25:51;17.27;;;9.63;;
18793;SDS011;29610;49.022;12.114;2024-02-14T03:28:20;16.40;;;9.17;;
18793;SDS011;29610;49.022;12.114;2024-02-14T03:30:48;18.47;;;9.10;;
18793;SDS011;29610;49.022;12.114;2024-02-14T03:33:17;24.07;;;10.90;;
18793;SDS011;29610;49.022;12.114;2024-02-14T03:35:45;20.83;;;9.57;;
18793;SDS011;29610;49.022;12.114;2024-02-14T03:38:24;18.47;;;11.03;;
18793;SDS011;29610;49.022;12.114;2024-02-14T03:40:53;18.50;;;10.50;;
18793;SDS011;29610;49.022;12.114;2024-02-14T03:43:22;15.67;;;9.93;;
18793;SDS011;29610;49.022;12.114;2024-02-14T03:45:50;19.60;;;10.10;;
18793;SDS011;29610;49.022;12.114;2024-02-14T03:48:19;17.40;;;10.43;;
18793;SDS011;29610;49.022;12.114;2024-02-14T03:50:48;16.60;;;9.97;;
18793;SDS011;29610;49.022;12.114;2024-02-14T03:53:16;20.63;;;11.47;;
18793;SDS011;29610;49.022;12.114;2024-02-14T03:55:44;17.77;;;11.00;;
18793;SDS011;29610;49.022;12.114;2024-02-14T03:58:12;16.50;;;10.33;;
18793;SDS011;29610;49.022;12.114;2024-02-14T04:00:43;22.30;;;11.23;;
18793;SDS011;29610;49.022;12.114;2024-02-14T04:03:14;18.90;;;11.23;;
18793;SDS011;29610;49.022;12.114;2024-02-14T04:05:43;22.80;;;10.73;;
18793;SDS011;29610;49.022;12.114;2024-02-14T04:08:14;19.10;;;10.17;;
18793;SDS011;29610;49.022;12.114;2024-02-14T04:10:42;22.57;;;11.53;;
18793;SDS011;29610;49.022;12.114;2024-02-14T04:13:11;16.87;;;10.37;;
18793;SDS011;29610;49.022;12.114;2024-02-14T04:15:39;26.17;;;13.87;;
18793;SDS011;29610;49.022;12.114;2024-02-14T04:18:13;19.17;;;12.20;;
18793;SDS011;29610;49.022;12.114;2024-02-14T04:20:44;19.80;;;12.53;;
18793;SDS011;29610;49.022;12.114;2024-02-14T04:23:13;23.97;;;12.73;;
18793;SDS011;29610;49.022;12.114;2024-02-14T04:25:41;21.17;;;12.00;;
18793;SDS011;29610;49.022;12.114;2024-02-14T04:28:09;25.63;;;12.47;;
18793;SDS011;29610;49.022;12.114;2024-02-14T04:30:38;17.57;;;11.50;;
18793;SDS011;29610;49.022;12.114;2024-02-14T04:33:15;19.57;;;12.40;;
18793;SDS011;29610;49.022;12.114;2024-02-14T04:35:44;23.93;;;12.83;;
18793;SDS011;29610;49.022;12.114;2024-02-14T04:38:12;23.40;;;13.33;;
18793;SDS011;29610;49.022;12.114;2024-02-14T04:40:40;23.70;;;13.80;;
18793;SDS011;29610;49.022;12.114;2024-02-14T04:43:09;22.60;;;13.03;;
18793;SDS011;29610;49.022;12.114;2024-02-14T04:45:37;24.20;;;13.03;;
18793;SDS011;29610;49.022;12.114;2024-02-14T04:48:07;26.47;;;13.23;;
18793;SDS011;29610;49.022;12.114;2024-02-14T04:50:36;24.07;;;14.00;;
18793;SDS011;29610;49.022;12.114;2024-02-14T04:53:05;21.67;;;12.77;;
18793;SDS011;29610;49.022;12.114;2024-02-14T04:55:33;24.67;;;14.23;;
18793;SDS011;29610;49.022;12.114;2024-02-14T04:58:01;22.47;;;12.97;;
18793;SDS011;29610;49.022;12.114;2024-02-14T05:00:31;28.87;;;13.27;;
18793;SDS011;29610;49.022;12.114;2024-02-14T05:02:59;28.43;;;14.50;;
18793;SDS011;29610;49.022;12.114;2024-02-14T05:05:27;24.73;;;14.53;;
18793;SDS011;29610;49.022;12.114;2024-02-14T05:07:59;24.93;;;14.73;;
18793;SDS011;29610;49.022;12.114;2024-02-14T05:10:28;23.07;;;13.20;;
18793;SDS011;29610;49.022;12.114;2024-02-14T05:12:57;25.20;;;14.30;;
18793;SDS011;29610;49.022;12.114;2024-02-14T05:15:25;26.30;;;15.20;;
18793;SDS011;29610;49.022;12.114;2024-02-14T05:17:53;22.50;;;13.80;;
18793;SDS011;29610;49.022;12.114;2024-02-14T05:20:22;24.97;;;14.57;;
18793;SDS011;29610;49.022;12.114;2024-02-14T05:22:51;24.00;;;15.00;;
18793;SDS011;29610;49.022;12.114;2024-02-14T05:25:20;23.40;;;14.50;;
18793;SDS011;29610;49.022;12.114;2024-02-14T05:27:54;28.23;;;14.70;;
18793;SDS011;29610;49.022;12.114;2024-02-14T05:30:22;30.97;;;14.13;;
18793;SDS011;29610;49.022;12.114;2024-02-14T05:33:01;26.60;;;15.57;;
18793;SDS011;29610;49.022;12.114;2024-02-14T05:35:30;24.53;;;13.00;;
18793;SDS011;29610;49.022;12.114;2024-02-14T05:37:58;26.90;;;14.53;;
18793;SDS011;29610;49.022;12.114;2024-02-14T05:40:28;22.00;;;14.37;;
18793;SDS011;29610;49.022;12.114;2024-02-14T05:42:56;22.10;;;13.50;;
18793;SDS011;29610;49.022;12.114;2024-02-14T05:45:24;29.87;;;14.63;;
18793;SDS011;29610;49.022;12.114;2024-02-14T05:47:53;24.53;;;15.17;;
18793;SDS011;29610;49.022;12.114;2024-02-14T05:50:22;26.83;;;15.03;;
18793;SDS011;29610;49.022;12.114;2024-02-14T05:52:50;29.90;;;17.47;;
18793;SDS011;29610;49.022;12.114;2024-02-14T05:55:19;27.30;;;16.50;;
18793;SDS011;29610;49.022;12.114;2024-02-14T05:57:51;26.20;;;15.33;;
18793;SDS011;29610;49.022;12.114;2024-02-14T06:00:20;32.77;;;15.73;;
18793;SDS011;29610;49.022;12.114;2024-02-14T06:02:54;23.97;;;13.80;;
18793;SDS011;29610;49.022;12.114;2024-02-14T06:05:22;23.20;;;15.37;;
18793;SDS011;29610;49.022;12.114;2024-02-14T06:07:50;27.50;;;14.80;;
18793;SDS011;29610;49.022;12.114;2024-02-14T06:10:19;41.83;;;16.13;;
18793;SDS011;29610;49.022;12.114;2024-02-14T06:12:47;25.97;;;14.87;;
18793;SDS011;29610;49.022;12.114;2024-02-14T06:15:17;22.33;;;15.30;;
18793;SDS011;29610;49.022;12.114;2024-02-14T06:17:45;29.87;;;16.27;;
18793;SDS011;29610;49.022;12.114;2024-02-14T06:20:14;27.57;;;16.27;;
18793;SDS011;29610;49.022;12.114;2024-02-14T06:22:43;32.73;;;16.90;;
18793;SDS011;29610;49.022;12.114;2024-02-14T06:25:22;32.50;;;15.70;;
18793;SDS011;29610;49.022;12.114;2024-02-14T06:27:58;26.70;;;16.50;;
18793;SDS011;29610;49.022;12.114;2024-02-14T06:30:27;28.20;;;15.70;;
18793;SDS011;29610;49.022;12.114;2024-02-14T06:32:59;27.47;;;17.50;;
18793;SDS011;29610;49.022;12.114;2024-02-14T06:35:29;30.77;;;17.10;;
18793;SDS011;29610;49.022;12.114;2024-02-14T06:37:58;32.27;;;17.40;;
18793;SDS011;29610;49.022;12.114;2024-02-14T06:40:31;35.07;;;17.90;;
18793;SDS011;29610;49.022;12.114;2024-02-14T06:42:59;28.20;;;16.47;;
18793;SDS011;29610;49.022;12.114;2024-02-14T06:45:30;27.63;;;14.93;;
18793;SDS011;29610;49.022;12.114;2024-02-14T06:48:07;29.00;;;16.80;;
18793;SDS011;29610;49.022;12.114;2024-02-14T06:50:36;31.60;;;16.33;;
18793;SDS011;29610;49.022;12.114;2024-02-14T06:53:06;25.40;;;16.00;;
18793;SDS011;29610;49.022;12.114;2024-02-14T06:55:34;27.97;;;16.00;;
18793;SDS011;29610;49.022;12.114;2024-02-14T06:58:03;32.60;;;15.60;;
18793;SDS011;29610;49.022;12.114;2024-02-14T07:00:33;25.33;;;15.80;;
18793;SDS011;29610;49.022;12.114;2024-02-14T07:03:02;32.80;;;16.70;;
18793;SDS011;29610;49.022;12.114;2024-02-14T07:05:30;30.83;;;17.20;;
18793;SDS011;29610;49.022;12.114;2024-02-14T07:07:59;27.77;;;16.40;;
18793;SDS011;29610;49.022;12.114;2024-02-14T07:10:27;31.03;;;17.37;;
18793;SDS011;29610;49.022;12.114;2024-02-14T07:12:56;27.43;;;16.13;;
18793;SDS011;29610;49.022;12.114;2024-02-14T07:15:24;31.03;;;16.63;;
18793;SDS011;29610;49.022;12.114;2024-02-14T07:17:56;27.73;;;16.63;;
18793;SDS011;29610;49.022;12.114;2024-02-14T07:20:25;28.93;;;17.17;;
18793;SDS011;29610;49.022;12.114;2024-02-14T07:22:54;31.37;;;16.03;;
18793;SDS011;29610;49.022;12.114;2024-02-14T07:25:23;37.43;;;16.23;;
18793;SDS011;29610;49.022;12.114;2024-02-14T07:27:51;22.53;;;14.43;;
18793;SDS011;29610;49.022;12.114;2024-02-14T07:30:19;27.30;;;17.83;;
18793;SDS011;29610;49.022;12.114;2024-02-14T07:32:48;25.97;;;15.87;;
18793;SDS011;29610;49.022;12.114;2024-02-14T07:35:19;29.00;;;15.23;;
18793;SDS011;29610;49.022;12.114;2024-02-14T07:37:47;23.00;;;15.10;;
18793;SDS011;29610;49.022;12.114;2024-02-14T07:40:16;26.43;;;15.67;;
18793;SDS011;29610;49.022;12.114;2024-02-14T07:43:03;26.17;;;16.90;;
18793;SDS011;29610;49.022;12.114;2024-02-14T07:45:33;26.03;;;14.50;;
18793;SDS011;29610;49.022;12.114;2024-02-14T07:48:01;28.03;;;15.50;;
18793;SDS011;29610;49.022;12.114;2024-02-14T07:50:32;27.10;;;15.63;;
18793;SDS011;29610;49.022;12.114;2024-02-14T07:53:01;29.93;;;15.37;;
18793;SDS011;29610;49.022;12.114;2024-02-14T07:55:29;22.90;;;14.30;;
18793;SDS011;29610;49.022;12.114;2024-02-14T07:57:57;28.50;;;15.40;;
18793;SDS011;29610;49.022;12.114;2024-02-14T08:00:26;21.20;;;14.70;;
18793;SDS011;29610;49.022;12.114;2024-02-14T08:02:55;21.70;;;14.37;;
18793;SDS011;29610;49.022;12.114;2024-02-14T08:05:23;25.00;;;13.47;;
18793;SDS011;29610;49.022;12.114;2024-02-14T08:07:53;25.70;;;13.90;;
18793;SDS011;29610;49.022;12.114;2024-02-14T08:10:21;28.50;;;15.33;;
18793;SDS011;29610;49.022;12.114;2024-02-14T08:12:49;28.47;;;15.03;;
18793;SDS011;29610;49.022;12.114;2024-02-14T08:15:18;24.40;;;14.83;;
18793;SDS011;29610;49.022;12.114;2024-02-14T08:17:47;25.13;;;15.23;;
18793;SDS011;29610;49.022;12.114;2024-02-14T08:20:15;28.93;;;15.40;;
18793;SDS011;29610;49.022;12.114;2024-02-14T08:22:54;24.37;;;12.73;;
18793;SDS011;29610;49.022;12.114;2024-02-14T08:25:23;21.70;;;13.10;;
18793;SDS011;29610;49.022;12.114;2024-02-14T08:27:51;29.03;;;14.63;;
18793;SDS011;29610;49.022;12.114;2024-02-14T08:30:19;28.37;;;14.67;;
18793;SDS011;29610;49.022;12.114;2024-02-14T08:32:48;23.73;;;14.20;;
18793;SDS011;29610;49.022;12.114;2024-02-14T08:35:16;20.67;;;12.93;;
18793;SDS011;29610;49.022;12.114;2024-02-14T08:37:45;17.47;;;12.50;;
18793;SDS011;29610;49.022;12.114;2024-02-14T08:40:15;22.50;;;12.70;;
18793;SDS011;29610;49.022;12.114;2024-02-14T08:42:43;18.37;;;11.97;;
18793;SDS011;29610;49.022;12.114;2024-02-14T08:45:11;22.20;;;11.77;;
18793;SDS011;29610;49.022;12.114;2024-02-14T08:47:39;16.70;;;11.20;;
18793;SDS011;29610;49.022;12.114;2024-02-14T08:50:11;17.10;;;11.10;;
18793;SDS011;29610;49.022;12.114;2024-02-14T08:52:40;23.33;;;9.93;;
18793;SDS011;29610;49.022;12.114;2024-02-14T08:55:08;17.97;;;10.27;;
18793;SDS011;29610;49.022;12.114;2024-02-14T08:57:45;18.10;;;9.87;;
18793;SDS011;29610;49.022;12.114;2024-02-14T09:00:15;13.47;;;9.13;;
18793;SDS011;29610;49.022;12.114;2024-02-14T09:02:47;21.90;;;9.00;;
18793;SDS011;29610;49.022;12.114;2024-02-14T09:05:15;19.87;;;8.90;;
18793;SDS011;29610;49.022;12.114;2024-02-14T09:07:45;16.30;;;9.43;;
18793;SDS011;29610;49.022;12.114;2024-02-14T09:10:13;23.33;;;10.00;;
18793;SDS011;29610;49.022;12.114;2024-02-14T09:12:42;21.63;;;10.20;;
18793;SDS011;29610;49.022;12.114;2024-02-14T09:15:12;15.13;;;7.70;;
18793;SDS011;29610;49.022;12.114;2024-02-14T09:17:41;18.07;;;8.20;;
18793;SDS011;29610;49.022;12.114;2024-02-14T09:20:10;16.33;;;8.50;;
18793;SDS011;29610;49.022;12.114;2024-02-14T09:22:40;16.23;;;8.00;;
18793;SDS011;29610;49.022;12.114;2024-02-14T09:25:09;16.13;;;7.23;;
18793;SDS011;29610;49.022;12.114;2024-02-14T09:27:37;14.30;;;7.40;;
18793;SDS011;29610;49.022;12.114;2024-02-14T09:30:08;11.27;;;7.13;;
18793;SDS011;29610;49.022;12.114;2024-02-14T09:32:53;14.13;;;7.83;;
18793;SDS011;29610;49.022;12.114;2024-02-14T09:35:22;13.83;;;7.67;;
18793;SDS011;29610;49.022;12.114;2024-02-14T09:37:52;11.53;;;6.60;;
18793;SDS011;29610;49.022;12.114;2024-02-14T09:40:20;13.10;;;7.30;;
18793;SDS011;29610;49.022;12.114;2024-02-14T09:42:50;15.30;;;6.60;;
18793;SDS011;29610;49.022;12.114;2024-02-14T09:45:23;11.03;;;6.50;;
18793;SDS011;29610;49.022;12.114;2024-02-14T09:47:53;11.47;;;7.00;;
18793;SDS011;29610;49.022;12.114;2024-02-14T09:50:23;12.87;;;6.50;;
18793;SDS011;29610;49.022;12.114;2024-02-14T09:52:53;9.40;;;6.07;;
18793;SDS011;29610;49.022;12.114;2024-02-14T09:55:23;12.63;;;6.47;;
18793;SDS011;29610;49.022;12.114;2024-02-14T09:57:53;11.70;;;7.20;;
18793;SDS011;29610;49.022;12.114;2024-02-14T10:00:24;10.50;;;6.10;;
18793;SDS011;29610;49.022;12.114;2024-02-14T10:02:53;16.23;;;6.13;;
18793;SDS011;29610;49.022;12.114;2024-02-14T10:05:23;9.50;;;5.47;;
18793;SDS011;29610;49.022;12.114;2024-02-14T10:07:51;12.50;;;5.37;;
18793;SDS011;29610;49.022;12.114;2024-02-14T10:10:23;14.70;;;6.10;;
18793;SDS011;29610;49.022;12.114;2024-02-14T10:12:53;10.77;;;6.20;;
18793;SDS011;29610;49.022;12.114;2024-02-14T10:15:24;9.47;;;5.50;;
18793;SDS011;29610;49.022;12.114;2024-02-14T10:17:52;10.60;;;5.90;;
18793;SDS011;29610;49.022;12.114;2024-02-14T10:20:21;9.23;;;5.77;;
18793;SDS011;29610;49.022;12.114;2024-02-14T10:22:49;12.03;;;6.83;;
18793;SDS011;29610;49.022;12.114;2024-02-14T10:25:17;15.83;;;5.67;;
18793;SDS011;29610;49.022;12.114;2024-02-14T10:27:48;10.20;;;5.83;;
18793;SDS011;29610;49.022;12.114;2024-02-14T10:30:16;11.90;;;6.10;;
18793;SDS011;29610;49.022;12.114;2024-02-14T10:32:46;9.80;;;6.43;;
18793;SDS011;29610;49.022;12.114;2024-02-14T10:35:15;11.67;;;5.90;;
18793;SDS011;29610;49.022;12.114;2024-02-14T10:37:44;13.17;;;6.73;;
18793;SDS011;29610;49.022;12.114;2024-02-14T10:40:15;11.33;;;5.97;;
18793;SDS011;29610;49.022;12.114;2024-02-14T10:42:45;9.20;;;5.00;;
18793;SDS011;29610;49.022;12.114;2024-02-14T10:45:14;10.37;;;6.20;;
18793;SDS011;29610;49.022;12.114;2024-02-14T10:47:49;15.83;;;5.47;;
18793;SDS011;29610;49.022;12.114;2024-02-14T10:50:21;16.00;;;5.70;;
18793;SDS011;29610;49.022;12.114;2024-02-14T10:52:52;11.07;;;6.33;;
18793;SDS011;29610;49.022;12.114;2024-02-14T10:55:25;9.30;;;5.73;;
18793;SDS011;29610;49.022;12.114;2024-02-14T10:57:58;10.27;;;5.80;;
18793;SDS011;29610;49.022;12.114;2024-02-14T11:00:27;16.73;;;6.57;;
18793;SDS011;29610;49.022;12.114;2024-02-14T11:03:00;8.80;;;5.40;;
18793;SDS011;29610;49.022;12.114;2024-02-14T11:05:28;10.30;;;6.50;;
18793;SDS011;29610;49.022;12.114;2024-02-14T11:07:57;9.80;;;6.00;;
18793;SDS011;29610;49.022;12.114;2024-02-14T11:10:37;11.60;;;5.43;;
18793;SDS011;29610;49.022;12.114;2024-02-14T11:13:09;13.67;;;6.30;;
18793;SDS011;29610;49.022;12.114;2024-02-14T11:15:44;11.53;;;5.27;;
18793;SDS011;29610;49.022;12.114;2024-02-14T11:18:24;10.57;;;5.60;;
18793;SDS011;29610;49.022;12.114;2024-02-14T11:20:53;10.23;;;5.17;;
18793;SDS011;29610;49.022;12.114;2024-02-14T11:23:23;9.80;;;5.87;;
18793;SDS011;29610;49.022;12.114;2024-02-14T11:25:59;9.27;;;5.60;;
18793;SDS011;29610;49.022;12.114;2024-02-14T11:28:28;11.33;;;5.70;;
18793;SDS011;29610;49.022;12.114;2024-02-14T11:30:58;12.73;;;5.73;;
18793;SDS011;29610;49.022;12.114;2024-02-14T11:33:32;10.93;;;5.70;;
18793;SDS011;29610;49.022;12.114;2024-02-14T11:36:06;12.13;;;6.50;;
18793;SDS011;29610;49.022;12.114;2024-02-14T11:38:37;9.60;;;5.13;;
18793;SDS011;29610;49.022;12.114;2024-02-14T11:41:10;9.60;;;5.60;;
18793;SDS011;29610;49.022;12.114;2024-02-14T11:43:38;15.53;;;5.80;;
18793;SDS011;29610;49.022;12.114;2024-02-14T11:46:07;8.73;;;4.90;;
18793;SDS011;29610;49.022;12.114;2024-02-14T11:48:37;11.03;;;4.90;;
18793;SDS011;29610;49.022;12.114;2024-02-14T11:51:07;7.77;;;4.80;;
18793;SDS011;29610;49.022;12.114;2024-02-14T11:53:37;12.53;;;5.70;;
18793;SDS011;29610;49.022;12.114;2024-02-14T11:56:07;10.27;;;4.93;;
18793;SDS011;29610;49.022;12.114;2024-02-14T11:58:35;8.97;;;5.37;;
18793;SDS011;29610;49.022;12.114;2024-02-14T12:01:03;9.50;;;5.57;;
18793;SDS011;29610;49.022;12.114;2024-02-14T12:03:33;9.03;;;4.30;;
18793;SDS011;29610;49.022;12.114;2024-02-14T12:06:03;7.80;;;4.17;;
18793;SDS011;29610;49.022;12.114;2024-02-14T12:08:33;10.07;;;4.70;;
18793;SDS011;29610;49.022;12.114;2024-02-14T12:11:01;9.60;;;4.83;;
18793;SDS011;29610;49.022;12.114;2024-02-14T12:13:30;10.00;;;5.10;;
18793;SDS011;29610;49.022;12.114;2024-02-14T12:16:00;9.60;;;4.90;;
18793;SDS011;29610;49.022;12.114;2024-02-14T12:18:28;8.50;;;4.30;;
18793;SDS011;29610;49.022;12.114;2024-02-14T12:21:04;14.07;;;4.97;;
18793;SDS011;29610;49.022;12.114;2024-02-14T12:23:35;11.23;;;4.40;;
18793;SDS011;29610;49.022;12.114;2024-02-14T12:26:03;9.93;;;4.47;;
18793;SDS011;29610;49.022;12.114;2024-02-14T12:28:32;9.33;;;5.20;;
18793;SDS011;29610;49.022;12.114;2024-02-14T12:31:01;8.43;;;4.30;;
18793;SDS011;29610;49.022;12.114;2024-02-14T12:33:29;8.50;;;4.57;;
18793;SDS011;29610;49.022;12.114;2024-02-14T12:35:59;9.07;;;4.23;;
18793;SDS011;29610;49.022;12.114;2024-02-14T12:38:29;7.90;;;4.20;;
18793;SDS011;29610;49.022;12.114;2024-02-14T12:40:59;11.47;;;5.80;;
18793;SDS011;29610;49.022;12.114;2024-02-14T12:43:28;9.30;;;4.40;;
18793;SDS011;29610;49.022;12.114;2024-02-14T12:45:57;9.57;;;4.87;;
18793;SDS011;29610;49.022;12.114;2024-02-14T12:48:25;9.83;;;4.47;;
18793;SDS011;29610;49.022;12.114;2024-02-14T12:50:54;11.20;;;4.93;;
18793;SDS011;29610;49.022;12.114;2024-02-14T12:53:24;6.80;;;4.27;;
18793;SDS011;29610;49.022;12.114;2024-02-14T12:55:54;8.03;;;4.10;;
18793;SDS011;29610;49.022;12.114;2024-02-14T12:58:23;10.20;;;4.50;;
18793;SDS011;29610;49.022;12.114;2024-02-14T13:00:51;12.10;;;4.53;;
18793;SDS011;29610;49.022;12.114;2024-02-14T13:03:20;7.07;;;3.80;;
18793;SDS011;29610;49.022;12.114;2024-02-14T13:05:48;11.73;;;4.40;;
18793;SDS011;29610;49.022;12.114;2024-02-14T13:08:16;9.87;;;4.33;;
18793;SDS011;29610;49.022;12.114;2024-02-14T13:10:45;13.20;;;4.80;;
18793;SDS011;29610;49.022;12.114;2024-02-14T13:13:15;8.40;;;3.90;;
18793;SDS011;29610;49.022;12.114;2024-02-14T13:15:44;9.10;;;4.40;;
18793;SDS011;29610;49.022;12.114;2024-02-14T13:18:12;12.17;;;3.67;;
18793;SDS011;29610;49.022;12.114;2024-02-14T13:20:41;9.80;;;4.67;;
18793;SDS011;29610;49.022;12.114;2024-02-14T13:23:11;9.83;;;4.70;;
18793;SDS011;29610;49.022;12.114;2024-02-14T13:25:40;11.43;;;4.27;;
18793;SDS011;29610;49.022;12.114;2024-02-14T13:28:09;7.63;;;4.40;;
18793;SDS011;29610;49.022;12.114;2024-02-14T13:30:38;9.27;;;4.10;;
18793;SDS011;29610;49.022;12.114;2024-02-14T13:33:07;6.60;;;3.27;;
18793;SDS011;29610;49.022;12.114;2024-02-14T13:35:36;10.13;;;4.60;;
18793;SDS011;29610;49.022;12.114;2024-02-14T13:38:05;6.87;;;3.60;;
18793;SDS011;29610;49.022;12.114;2024-02-14T13:40:33;10.67;;;3.30;;
18793;SDS011;29610;49.022;12.114;2024-02-14T13:43:02;10.57;;;3.80;;
18793;SDS011;29610;49.022;12.114;2024-02-14T13:45:39;7.97;;;3.83;;
18793;SDS011;29610;49.022;12.114;2024-02-14T13:48:11;9.07;;;3.80;;
18793;SDS011;29610;49.022;12.114;2024-02-14T13:50:40;7.67;;;3.77;;
18793;SDS011;29610;49.022;12.114;2024-02-14T13:53:09;8.30;;;4.50;;
18793;SDS011;29610;49.022;12.114;2024-02-14T13:55:37;8.60;;;4.23;;
18793;SDS011;29610;49.022;12.114;2024-02-14T13:58:06;14.80;;;5.17;;
18793;SDS011;29610;49.022;12.114;2024-02-14T14:00:42;9.70;;;4.37;;
18793;SDS011;29610;49.022;12.114;2024-02-14T14:03:10;8.67;;;4.87;;
18793;SDS011;29610;49.022;12.114;2024-02-14T14:05:39;7.10;;;4.20;;
18793;SDS011;29610;49.022;12.114;2024-02-14T14:08:07;8.40;;;4.00;;
18793;SDS011;29610;49.022;12.114;2024-02-14T14:10:36;12.83;;;5.00;;
18793;SDS011;29610;49.022;12.114;2024-02-14T14:13:04;9.67;;;4.60;;
18793;SDS011;29610;49.022;12.114;2024-02-14T14:15:33;13.43;;;4.90;;
18793;SDS011;29610;49.022;12.114;2024-02-14T14:18:02;8.00;;;4.20;;
18793;SDS011;29610;49.022;12.114;2024-02-14T14:20:31;10.27;;;4.33;;
18793;SDS011;29610;49.022;12.114;2024-02-14T14:23:00;8.40;;;4.03;;
18793;SDS011;29610;49.022;12.114;2024-02-14T14:25:29;15.23;;;4.57;;
18793;SDS011;29610;49.022;12.114;2024-02-14T14:27:58;10.40;;;4.80;;
18793;SDS011;29610;49.022;12.114;2024-02-14T14:30:31;11.10;;;4.63;;
18793;SDS011;29610;49.022;12.114;2024-02-14T14:32:59;12.53;;;5.30;;
18793;SDS011;29610;49.022;12.114;2024-02-14T14:35:30;10.73;;;4.77;;
18793;SDS011;29610;49.022;12.114;2024-02-14T14:38:00;9.40;;;4.30;;